YGP weather

Gaspé (Michel-Pouliot) Airport
Gaspé, Quebec, Canada

Public forecast

Using degrees Celsius for public forecast. Weather courtesy of forecast.io.

Current aviation weather report (METAR) for Gaspé (Michel-Pouliot) Airport

Retrieved 2020/01/26 17:24 UTC (6 minutes ago):

CYGP 261724Z 07007KT 8SM -FZRA -PL OVC010 M03/M05 A2981 RMK SC8 VIS W 4 PRESFR SLP097

Aviation forecast (TAF) for Gaspé (Michel-Pouliot) Airport

Retrieved 2020/01/26 14:00 UTC (3 hours ago):

TAF CYGP 261338Z 2614/2702 VRB03KT P6SM BKN090 PROB40 2614/2617 BKN008 FM261700 13010G20KT 2SM -SNPL BR OVC010 TEMPO 2617/2620 6SM -FZRA BR FM262000 12010G20KT 3/4SM -SNPL VV006 TEMPO 2620/2624 6SM -FZRA BR OVC010 FM270000 09008G18KT 3SM -SNPL OVC005 TEMPO 2700/2702 6SM -FZRA BR OVC008 BECMG 2700/2702 05005KT RMK NXT FCST BY 262000Z